sensor_id;sensor_type;location;lat;lon;timestamp;P1;durP1;ratioP1;P2;durP2;ratioP2
8060;SDS011;4073;42.626;25.386;2023-01-19T00:00:26;26.27;;;8.23;;
8060;SDS011;4073;42.626;25.386;2023-01-19T00:02:51;22.20;;;8.27;;
8060;SDS011;4073;42.626;25.386;2023-01-19T00:05:18;22.40;;;7.53;;
8060;SDS011;4073;42.626;25.386;2023-01-19T00:07:44;20.43;;;7.63;;
8060;SDS011;4073;42.626;25.386;2023-01-19T00:10:10;24.57;;;8.37;;
8060;SDS011;4073;42.626;25.386;2023-01-19T00:12:36;23.67;;;8.53;;
8060;SDS011;4073;42.626;25.386;2023-01-19T00:15:02;19.40;;;8.17;;
8060;SDS011;4073;42.626;25.386;2023-01-19T00:17:28;21.57;;;7.23;;
8060;SDS011;4073;42.626;25.386;2023-01-19T00:19:53;25.53;;;8.83;;
8060;SDS011;4073;42.626;25.386;2023-01-19T00:22:18;31.87;;;8.60;;
8060;SDS011;4073;42.626;25.386;2023-01-19T00:24:44;21.70;;;7.77;;
8060;SDS011;4073;42.626;25.386;2023-01-19T00:27:10;25.63;;;8.63;;
8060;SDS011;4073;42.626;25.386;2023-01-19T00:29:35;20.33;;;8.27;;
8060;SDS011;4073;42.626;25.386;2023-01-19T00:32:01;20.77;;;7.17;;
8060;SDS011;4073;42.626;25.386;2023-01-19T00:34:28;19.23;;;6.70;;
8060;SDS011;4073;42.626;25.386;2023-01-19T00:37:01;21.80;;;7.53;;
8060;SDS011;4073;42.626;25.386;2023-01-19T00:39:27;26.77;;;7.73;;
8060;SDS011;4073;42.626;25.386;2023-01-19T00:41:53;20.17;;;7.43;;
8060;SDS011;4073;42.626;25.386;2023-01-19T00:44:37;21.40;;;6.57;;
8060;SDS011;4073;42.626;25.386;2023-01-19T00:47:02;19.17;;;7.20;;
8060;SDS011;4073;42.626;25.386;2023-01-19T00:49:29;25.37;;;7.07;;
8060;SDS011;4073;42.626;25.386;2023-01-19T00:51:55;22.70;;;6.90;;
8060;SDS011;4073;42.626;25.386;2023-01-19T00:54:21;19.80;;;6.70;;
8060;SDS011;4073;42.626;25.386;2023-01-19T00:56:46;26.27;;;6.57;;
8060;SDS011;4073;42.626;25.386;2023-01-19T00:59:12;28.40;;;7.13;;
8060;SDS011;4073;42.626;25.386;2023-01-19T01:01:37;21.37;;;6.70;;
8060;SDS011;4073;42.626;25.386;2023-01-19T01:04:03;26.00;;;6.80;;
8060;SDS011;4073;42.626;25.386;2023-01-19T01:06:28;19.23;;;6.50;;
8060;SDS011;4073;42.626;25.386;2023-01-19T01:08:53;25.37;;;6.97;;
8060;SDS011;4073;42.626;25.386;2023-01-19T01:11:19;18.63;;;6.13;;
8060;SDS011;4073;42.626;25.386;2023-01-19T01:13:44;24.93;;;5.93;;
8060;SDS011;4073;42.626;25.386;2023-01-19T01:16:10;22.90;;;7.17;;
8060;SDS011;4073;42.626;25.386;2023-01-19T01:18:35;30.33;;;6.27;;
8060;SDS011;4073;42.626;25.386;2023-01-19T01:21:01;27.37;;;6.33;;
8060;SDS011;4073;42.626;25.386;2023-01-19T01:23:28;26.80;;;7.30;;
8060;SDS011;4073;42.626;25.386;2023-01-19T01:25:54;28.57;;;7.40;;
8060;SDS011;4073;42.626;25.386;2023-01-19T01:28:19;21.90;;;7.00;;
8060;SDS011;4073;42.626;25.386;2023-01-19T01:30:45;16.97;;;7.07;;
8060;SDS011;4073;42.626;25.386;2023-01-19T01:33:10;28.80;;;7.90;;
8060;SDS011;4073;42.626;25.386;2023-01-19T01:35:36;25.33;;;6.90;;
8060;SDS011;4073;42.626;25.386;2023-01-19T01:38:02;22.23;;;7.70;;
8060;SDS011;4073;42.626;25.386;2023-01-19T01:40:28;20.97;;;7.40;;
8060;SDS011;4073;42.626;25.386;2023-01-19T01:42:53;20.40;;;6.17;;
8060;SDS011;4073;42.626;25.386;2023-01-19T01:47:53;28.07;;;6.90;;
8060;SDS011;4073;42.626;25.386;2023-01-19T01:50:26;16.70;;;6.77;;
8060;SDS011;4073;42.626;25.386;2023-01-19T01:52:58;24.87;;;7.77;;
8060;SDS011;4073;42.626;25.386;2023-01-19T01:55:42;31.87;;;7.97;;
8060;SDS011;4073;42.626;25.386;2023-01-19T01:58:12;23.23;;;7.27;;
8060;SDS011;4073;42.626;25.386;2023-01-19T02:00:40;28.33;;;7.37;;
8060;SDS011;4073;42.626;25.386;2023-01-19T02:03:25;22.27;;;6.60;;
8060;SDS011;4073;42.626;25.386;2023-01-19T02:05:52;26.13;;;7.93;;
8060;SDS011;4073;42.626;25.386;2023-01-19T02:08:26;19.97;;;6.70;;
8060;SDS011;4073;42.626;25.386;2023-01-19T02:11:14;22.43;;;7.10;;
8060;SDS011;4073;42.626;25.386;2023-01-19T02:13:59;28.10;;;6.90;;
8060;SDS011;4073;42.626;25.386;2023-01-19T02:16:27;28.30;;;7.43;;
8060;SDS011;4073;42.626;25.386;2023-01-19T02:18:53;25.10;;;6.67;;
8060;SDS011;4073;42.626;25.386;2023-01-19T02:21:35;21.70;;;6.50;;
8060;SDS011;4073;42.626;25.386;2023-01-19T02:24:10;23.57;;;7.33;;
8060;SDS011;4073;42.626;25.386;2023-01-19T02:26:43;28.00;;;7.77;;
8060;SDS011;4073;42.626;25.386;2023-01-19T02:29:11;20.37;;;7.07;;
8060;SDS011;4073;42.626;25.386;2023-01-19T02:31:42;17.33;;;6.47;;
8060;SDS011;4073;42.626;25.386;2023-01-19T02:34:10;23.20;;;7.33;;
8060;SDS011;4073;42.626;25.386;2023-01-19T02:36:41;22.43;;;5.97;;
8060;SDS011;4073;42.626;25.386;2023-01-19T02:39:07;31.27;;;8.83;;
8060;SDS011;4073;42.626;25.386;2023-01-19T02:41:37;29.30;;;6.67;;
8060;SDS011;4073;42.626;25.386;2023-01-19T02:44:05;25.00;;;6.23;;
8060;SDS011;4073;42.626;25.386;2023-01-19T02:46:33;31.30;;;6.77;;
8060;SDS011;4073;42.626;25.386;2023-01-19T02:48:59;19.33;;;6.83;;
8060;SDS011;4073;42.626;25.386;2023-01-19T02:51:25;21.80;;;6.03;;
8060;SDS011;4073;42.626;25.386;2023-01-19T02:59:05;22.80;;;6.20;;
8060;SDS011;4073;42.626;25.386;2023-01-19T03:01:45;26.27;;;6.70;;
8060;SDS011;4073;42.626;25.386;2023-01-19T03:04:44;27.23;;;7.30;;
8060;SDS011;4073;42.626;25.386;2023-01-19T03:09:41;23.07;;;7.30;;
8060;SDS011;4073;42.626;25.386;2023-01-19T03:15:13;27.80;;;6.93;;
8060;SDS011;4073;42.626;25.386;2023-01-19T03:17:58;27.87;;;6.93;;
8060;SDS011;4073;42.626;25.386;2023-01-19T03:20:25;22.57;;;6.30;;
8060;SDS011;4073;42.626;25.386;2023-01-19T03:22:57;31.70;;;7.77;;
8060;SDS011;4073;42.626;25.386;2023-01-19T03:25:27;27.67;;;7.70;;
8060;SDS011;4073;42.626;25.386;2023-01-19T03:27:55;25.43;;;7.70;;
8060;SDS011;4073;42.626;25.386;2023-01-19T03:30:25;27.53;;;8.17;;
8060;SDS011;4073;42.626;25.386;2023-01-19T03:32:55;29.13;;;8.27;;
8060;SDS011;4073;42.626;25.386;2023-01-19T03:35:31;21.70;;;6.70;;
8060;SDS011;4073;42.626;25.386;2023-01-19T03:38:01;27.70;;;6.83;;
8060;SDS011;4073;42.626;25.386;2023-01-19T03:40:30;22.30;;;7.47;;
8060;SDS011;4073;42.626;25.386;2023-01-19T03:42:58;24.50;;;7.53;;
8060;SDS011;4073;42.626;25.386;2023-01-19T03:45:25;34.60;;;7.73;;
8060;SDS011;4073;42.626;25.386;2023-01-19T03:47:51;26.23;;;8.00;;
8060;SDS011;4073;42.626;25.386;2023-01-19T03:50:28;35.17;;;7.93;;
8060;SDS011;4073;42.626;25.386;2023-01-19T03:53:04;24.27;;;7.47;;
8060;SDS011;4073;42.626;25.386;2023-01-19T03:55:34;26.53;;;7.03;;
8060;SDS011;4073;42.626;25.386;2023-01-19T03:58:01;18.00;;;6.10;;
8060;SDS011;4073;42.626;25.386;2023-01-19T04:00:27;23.73;;;7.03;;
8060;SDS011;4073;42.626;25.386;2023-01-19T04:02:53;33.23;;;7.93;;
8060;SDS011;4073;42.626;25.386;2023-01-19T04:05:19;26.97;;;7.93;;
8060;SDS011;4073;42.626;25.386;2023-01-19T04:07:49;28.10;;;8.53;;
8060;SDS011;4073;42.626;25.386;2023-01-19T04:10:16;29.03;;;9.07;;
8060;SDS011;4073;42.626;25.386;2023-01-19T04:12:42;29.63;;;6.83;;
8060;SDS011;4073;42.626;25.386;2023-01-19T04:15:08;23.23;;;7.57;;
8060;SDS011;4073;42.626;25.386;2023-01-19T04:17:33;27.20;;;8.13;;
8060;SDS011;4073;42.626;25.386;2023-01-19T04:19:59;31.80;;;8.43;;
8060;SDS011;4073;42.626;25.386;2023-01-19T04:22:24;28.67;;;8.30;;
8060;SDS011;4073;42.626;25.386;2023-01-19T04:24:50;22.93;;;6.20;;
8060;SDS011;4073;42.626;25.386;2023-01-19T04:27:16;26.50;;;8.07;;
8060;SDS011;4073;42.626;25.386;2023-01-19T04:29:41;30.67;;;7.83;;
8060;SDS011;4073;42.626;25.386;2023-01-19T04:32:07;29.37;;;7.70;;
8060;SDS011;4073;42.626;25.386;2023-01-19T04:34:32;31.17;;;7.93;;
8060;SDS011;4073;42.626;25.386;2023-01-19T04:36:58;32.77;;;8.30;;
8060;SDS011;4073;42.626;25.386;2023-01-19T04:39:23;27.73;;;8.33;;
8060;SDS011;4073;42.626;25.386;2023-01-19T04:41:49;30.97;;;9.43;;
8060;SDS011;4073;42.626;25.386;2023-01-19T04:44:15;26.83;;;7.40;;
8060;SDS011;4073;42.626;25.386;2023-01-19T04:46:42;23.80;;;8.40;;
8060;SDS011;4073;42.626;25.386;2023-01-19T04:49:07;32.87;;;8.50;;
8060;SDS011;4073;42.626;25.386;2023-01-19T04:51:33;35.40;;;8.97;;
8060;SDS011;4073;42.626;25.386;2023-01-19T04:53:59;27.50;;;9.00;;
8060;SDS011;4073;42.626;25.386;2023-01-19T04:56:25;36.67;;;9.47;;
8060;SDS011;4073;42.626;25.386;2023-01-19T04:58:51;35.23;;;10.53;;
8060;SDS011;4073;42.626;25.386;2023-01-19T05:01:17;25.50;;;9.40;;
8060;SDS011;4073;42.626;25.386;2023-01-19T05:03:42;34.37;;;9.00;;
8060;SDS011;4073;42.626;25.386;2023-01-19T05:06:07;33.67;;;8.17;;
8060;SDS011;4073;42.626;25.386;2023-01-19T05:08:33;27.30;;;9.37;;
8060;SDS011;4073;42.626;25.386;2023-01-19T05:10:58;41.23;;;9.13;;
8060;SDS011;4073;42.626;25.386;2023-01-19T05:13:24;30.17;;;10.03;;
8060;SDS011;4073;42.626;25.386;2023-01-19T05:15:49;28.87;;;10.00;;
8060;SDS011;4073;42.626;25.386;2023-01-19T05:18:15;32.67;;;8.53;;
8060;SDS011;4073;42.626;25.386;2023-01-19T05:20:40;33.20;;;9.10;;
8060;SDS011;4073;42.626;25.386;2023-01-19T05:23:06;32.67;;;7.33;;
8060;SDS011;4073;42.626;25.386;2023-01-19T05:25:31;29.63;;;7.77;;
8060;SDS011;4073;42.626;25.386;2023-01-19T05:27:56;29.67;;;8.57;;
8060;SDS011;4073;42.626;25.386;2023-01-19T05:30:22;26.53;;;7.83;;
8060;SDS011;4073;42.626;25.386;2023-01-19T05:32:47;38.30;;;10.43;;
8060;SDS011;4073;42.626;25.386;2023-01-19T05:35:13;35.43;;;9.60;;
8060;SDS011;4073;42.626;25.386;2023-01-19T05:37:40;33.43;;;9.70;;
8060;SDS011;4073;42.626;25.386;2023-01-19T05:40:06;33.17;;;10.17;;
8060;SDS011;4073;42.626;25.386;2023-01-19T05:42:33;32.00;;;13.03;;
8060;SDS011;4073;42.626;25.386;2023-01-19T05:44:58;40.67;;;15.97;;
8060;SDS011;4073;42.626;25.386;2023-01-19T05:47:24;72.33;;;29.53;;
8060;SDS011;4073;42.626;25.386;2023-01-19T05:49:49;31.33;;;11.83;;
8060;SDS011;4073;42.626;25.386;2023-01-19T05:52:15;30.73;;;9.67;;
8060;SDS011;4073;42.626;25.386;2023-01-19T05:54:40;33.70;;;8.93;;
8060;SDS011;4073;42.626;25.386;2023-01-19T05:57:06;32.90;;;10.20;;
8060;SDS011;4073;42.626;25.386;2023-01-19T05:59:31;35.57;;;11.87;;
8060;SDS011;4073;42.626;25.386;2023-01-19T06:01:57;28.67;;;10.67;;
8060;SDS011;4073;42.626;25.386;2023-01-19T06:04:24;30.33;;;8.63;;
8060;SDS011;4073;42.626;25.386;2023-01-19T06:06:50;35.60;;;10.23;;
8060;SDS011;4073;42.626;25.386;2023-01-19T06:09:15;31.03;;;12.00;;
8060;SDS011;4073;42.626;25.386;2023-01-19T06:11:42;51.40;;;28.50;;
8060;SDS011;4073;42.626;25.386;2023-01-19T06:14:09;38.97;;;15.63;;
8060;SDS011;4073;42.626;25.386;2023-01-19T06:16:35;47.80;;;15.60;;
8060;SDS011;4073;42.626;25.386;2023-01-19T06:19:00;33.70;;;14.17;;
8060;SDS011;4073;42.626;25.386;2023-01-19T06:21:26;28.40;;;12.80;;
8060;SDS011;4073;42.626;25.386;2023-01-19T06:23:51;31.33;;;11.57;;
8060;SDS011;4073;42.626;25.386;2023-01-19T06:26:17;29.40;;;10.57;;
8060;SDS011;4073;42.626;25.386;2023-01-19T06:28:42;23.97;;;14.10;;
8060;SDS011;4073;42.626;25.386;2023-01-19T06:31:08;47.93;;;22.23;;
8060;SDS011;4073;42.626;25.386;2023-01-19T06:33:33;30.33;;;13.33;;
8060;SDS011;4073;42.626;25.386;2023-01-19T06:35:59;31.17;;;11.47;;
8060;SDS011;4073;42.626;25.386;2023-01-19T06:38:24;38.10;;;19.43;;
8060;SDS011;4073;42.626;25.386;2023-01-19T06:40:51;32.07;;;11.83;;
8060;SDS011;4073;42.626;25.386;2023-01-19T06:43:18;35.00;;;12.83;;
8060;SDS011;4073;42.626;25.386;2023-01-19T06:45:44;33.63;;;12.00;;
8060;SDS011;4073;42.626;25.386;2023-01-19T06:48:10;37.57;;;16.00;;
8060;SDS011;4073;42.626;25.386;2023-01-19T06:50:36;36.97;;;13.63;;
8060;SDS011;4073;42.626;25.386;2023-01-19T06:53:01;35.17;;;11.47;;
8060;SDS011;4073;42.626;25.386;2023-01-19T06:55:27;36.87;;;9.50;;
8060;SDS011;4073;42.626;25.386;2023-01-19T06:57:56;30.37;;;10.30;;
8060;SDS011;4073;42.626;25.386;2023-01-19T07:00:22;38.77;;;18.20;;
8060;SDS011;4073;42.626;25.386;2023-01-19T07:02:48;30.53;;;12.70;;
8060;SDS011;4073;42.626;25.386;2023-01-19T07:05:14;31.30;;;13.10;;
8060;SDS011;4073;42.626;25.386;2023-01-19T07:07:39;32.80;;;11.87;;
8060;SDS011;4073;42.626;25.386;2023-01-19T07:10:06;28.83;;;10.13;;
8060;SDS011;4073;42.626;25.386;2023-01-19T07:12:33;27.77;;;9.37;;
8060;SDS011;4073;42.626;25.386;2023-01-19T07:14:59;31.97;;;8.83;;
8060;SDS011;4073;42.626;25.386;2023-01-19T07:17:24;30.07;;;8.50;;
8060;SDS011;4073;42.626;25.386;2023-01-19T07:19:50;38.77;;;9.27;;
8060;SDS011;4073;42.626;25.386;2023-01-19T07:22:15;27.93;;;8.03;;
8060;SDS011;4073;42.626;25.386;2023-01-19T07:24:41;26.20;;;8.17;;
8060;SDS011;4073;42.626;25.386;2023-01-19T07:27:06;23.30;;;7.50;;
8060;SDS011;4073;42.626;25.386;2023-01-19T07:29:32;22.93;;;7.03;;
8060;SDS011;4073;42.626;25.386;2023-01-19T07:31:57;31.63;;;8.60;;
8060;SDS011;4073;42.626;25.386;2023-01-19T07:34:23;29.20;;;7.97;;
8060;SDS011;4073;42.626;25.386;2023-01-19T07:36:49;30.87;;;7.70;;
8060;SDS011;4073;42.626;25.386;2023-01-19T07:39:14;21.13;;;7.33;;
8060;SDS011;4073;42.626;25.386;2023-01-19T07:41:40;35.63;;;9.20;;
8060;SDS011;4073;42.626;25.386;2023-01-19T07:44:05;30.60;;;8.07;;
8060;SDS011;4073;42.626;25.386;2023-01-19T07:46:32;37.67;;;8.63;;
8060;SDS011;4073;42.626;25.386;2023-01-19T07:48:58;25.07;;;7.63;;
8060;SDS011;4073;42.626;25.386;2023-01-19T07:51:23;30.77;;;8.97;;
8060;SDS011;4073;42.626;25.386;2023-01-19T07:53:49;28.77;;;9.63;;
8060;SDS011;4073;42.626;25.386;2023-01-19T07:56:15;32.73;;;9.73;;
8060;SDS011;4073;42.626;25.386;2023-01-19T07:58:40;31.17;;;9.87;;
8060;SDS011;4073;42.626;25.386;2023-01-19T08:01:06;31.30;;;9.13;;
8060;SDS011;4073;42.626;25.386;2023-01-19T08:03:33;42.63;;;9.70;;
8060;SDS011;4073;42.626;25.386;2023-01-19T08:05:58;33.63;;;8.47;;
8060;SDS011;4073;42.626;25.386;2023-01-19T08:08:24;32.87;;;9.30;;
8060;SDS011;4073;42.626;25.386;2023-01-19T08:10:50;23.13;;;7.03;;
8060;SDS011;4073;42.626;25.386;2023-01-19T08:13:18;31.57;;;8.67;;
8060;SDS011;4073;42.626;25.386;2023-01-19T08:15:43;30.27;;;7.73;;
8060;SDS011;4073;42.626;25.386;2023-01-19T08:18:09;35.80;;;7.67;;
8060;SDS011;4073;42.626;25.386;2023-01-19T08:20:35;26.27;;;7.47;;
8060;SDS011;4073;42.626;25.386;2023-01-19T08:23:01;30.13;;;7.93;;
8060;SDS011;4073;42.626;25.386;2023-01-19T08:28:02;28.53;;;9.30;;
8060;SDS011;4073;42.626;25.386;2023-01-19T08:30:29;35.27;;;8.27;;
8060;SDS011;4073;42.626;25.386;2023-01-19T08:32:55;29.87;;;8.40;;
8060;SDS011;4073;42.626;25.386;2023-01-19T08:35:28;35.03;;;7.87;;
8060;SDS011;4073;42.626;25.386;2023-01-19T08:37:57;34.37;;;8.07;;
8060;SDS011;4073;42.626;25.386;2023-01-19T08:40:28;26.40;;;7.30;;
8060;SDS011;4073;42.626;25.386;2023-01-19T08:43:01;24.23;;;6.60;;
8060;SDS011;4073;42.626;25.386;2023-01-19T08:45:29;31.23;;;8.00;;
8060;SDS011;4073;42.626;25.386;2023-01-19T08:47:55;29.20;;;8.17;;
8060;SDS011;4073;42.626;25.386;2023-01-19T08:50:25;24.43;;;6.50;;
8060;SDS011;4073;42.626;25.386;2023-01-19T08:52:54;27.83;;;7.40;;
8060;SDS011;4073;42.626;25.386;2023-01-19T08:55:21;28.33;;;8.03;;
8060;SDS011;4073;42.626;25.386;2023-01-19T08:57:49;24.60;;;6.40;;
8060;SDS011;4073;42.626;25.386;2023-01-19T09:00:16;29.50;;;7.53;;
8060;SDS011;4073;42.626;25.386;2023-01-19T09:02:43;26.30;;;6.43;;
8060;SDS011;4073;42.626;25.386;2023-01-19T09:05:08;26.63;;;7.50;;
8060;SDS011;4073;42.626;25.386;2023-01-19T09:07:34;24.63;;;7.53;;
8060;SDS011;4073;42.626;25.386;2023-01-19T09:10:01;26.10;;;6.50;;
8060;SDS011;4073;42.626;25.386;2023-01-19T09:12:27;15.83;;;6.97;;
8060;SDS011;4073;42.626;25.386;2023-01-19T09:14:53;29.10;;;7.10;;
8060;SDS011;4073;42.626;25.386;2023-01-19T09:17:18;31.63;;;6.50;;
8060;SDS011;4073;42.626;25.386;2023-01-19T09:19:44;29.90;;;6.60;;
8060;SDS011;4073;42.626;25.386;2023-01-19T09:22:09;24.20;;;6.73;;
8060;SDS011;4073;42.626;25.386;2023-01-19T09:24:35;25.43;;;6.57;;
8060;SDS011;4073;42.626;25.386;2023-01-19T09:27:00;30.20;;;6.57;;
8060;SDS011;4073;42.626;25.386;2023-01-19T09:29:26;20.97;;;7.07;;
8060;SDS011;4073;42.626;25.386;2023-01-19T09:31:51;31.60;;;7.13;;
8060;SDS011;4073;42.626;25.386;2023-01-19T09:34:17;25.67;;;6.57;;
8060;SDS011;4073;42.626;25.386;2023-01-19T09:36:42;22.80;;;5.93;;
8060;SDS011;4073;42.626;25.386;2023-01-19T09:39:08;22.07;;;6.87;;
8060;SDS011;4073;42.626;25.386;2023-01-19T09:41:35;22.33;;;7.00;;
8060;SDS011;4073;42.626;25.386;2023-01-19T09:44:02;22.83;;;6.13;;
8060;SDS011;4073;42.626;25.386;2023-01-19T09:49:13;16.90;;;6.17;;
8060;SDS011;4073;42.626;25.386;2023-01-19T09:51:44;30.97;;;6.13;;
8060;SDS011;4073;42.626;25.386;2023-01-19T09:56:59;39.30;;;6.93;;
8060;SDS011;4073;42.626;25.386;2023-01-19T09:59:29;29.77;;;6.27;;
8060;SDS011;4073;42.626;25.386;2023-01-19T10:07:56;28.10;;;6.03;;
8060;SDS011;4073;42.626;25.386;2023-01-19T10:10:51;20.03;;;4.60;;
8060;SDS011;4073;42.626;25.386;2023-01-19T10:16:12;22.67;;;6.13;;
8060;SDS011;4073;42.626;25.386;2023-01-19T10:19:14;25.73;;;5.97;;
8060;SDS011;4073;42.626;25.386;2023-01-19T10:21:47;19.90;;;4.90;;
8060;SDS011;4073;42.626;25.386;2023-01-19T10:26:59;23.47;;;5.03;;
8060;SDS011;4073;42.626;25.386;2023-01-19T10:29:26;27.77;;;6.37;;
8060;SDS011;4073;42.626;25.386;2023-01-19T10:34:36;30.23;;;7.27;;
8060;SDS011;4073;42.626;25.386;2023-01-19T10:39:56;15.97;;;5.40;;
8060;SDS011;4073;42.626;25.386;2023-01-19T10:42:26;20.60;;;5.83;;
8060;SDS011;4073;42.626;25.386;2023-01-19T10:44:54;28.40;;;8.93;;
8060;SDS011;4073;42.626;25.386;2023-01-19T10:47:20;19.60;;;6.20;;
8060;SDS011;4073;42.626;25.386;2023-01-19T10:49:48;19.23;;;5.13;;
8060;SDS011;4073;42.626;25.386;2023-01-19T10:52:33;15.70;;;5.67;;
8060;SDS011;4073;42.626;25.386;2023-01-19T10:55:01;18.53;;;6.20;;
8060;SDS011;4073;42.626;25.386;2023-01-19T10:57:36;26.07;;;5.43;;
8060;SDS011;4073;42.626;25.386;2023-01-19T11:00:06;22.37;;;5.27;;
8060;SDS011;4073;42.626;25.386;2023-01-19T11:03:07;19.77;;;5.80;;
8060;SDS011;4073;42.626;25.386;2023-01-19T11:08:40;20.53;;;5.57;;
8060;SDS011;4073;42.626;25.386;2023-01-19T11:11:09;13.37;;;4.43;;
8060;SDS011;4073;42.626;25.386;2023-01-19T11:13:37;19.63;;;4.90;;
8060;SDS011;4073;42.626;25.386;2023-01-19T11:16:11;17.13;;;4.50;;
8060;SDS011;4073;42.626;25.386;2023-01-19T11:18:53;14.80;;;5.07;;
8060;SDS011;4073;42.626;25.386;2023-01-19T11:21:21;16.33;;;4.97;;
8060;SDS011;4073;42.626;25.386;2023-01-19T11:23:52;14.70;;;4.43;;
8060;SDS011;4073;42.626;25.386;2023-01-19T11:31:42;12.70;;;3.80;;
8060;SDS011;4073;42.626;25.386;2023-01-19T11:34:25;16.27;;;4.93;;
8060;SDS011;4073;42.626;25.386;2023-01-19T11:39:26;21.90;;;4.07;;
8060;SDS011;4073;42.626;25.386;2023-01-19T11:41:56;15.30;;;4.70;;
8060;SDS011;4073;42.626;25.386;2023-01-19T11:44:25;18.50;;;4.77;;
8060;SDS011;4073;42.626;25.386;2023-01-19T11:46:55;18.50;;;5.47;;
8060;SDS011;4073;42.626;25.386;2023-01-19T11:57:30;21.37;;;4.70;;
8060;SDS011;4073;42.626;25.386;2023-01-19T11:59:55;25.13;;;5.47;;
8060;SDS011;4073;42.626;25.386;2023-01-19T12:02:29;16.03;;;4.37;;
8060;SDS011;4073;42.626;25.386;2023-01-19T12:05:09;18.87;;;5.17;;
8060;SDS011;4073;42.626;25.386;2023-01-19T12:07:38;15.83;;;5.37;;
8060;SDS011;4073;42.626;25.386;2023-01-19T12:12:52;19.63;;;4.93;;
8060;SDS011;4073;42.626;25.386;2023-01-19T12:18:03;15.83;;;5.20;;
8060;SDS011;4073;42.626;25.386;2023-01-19T12:20:42;13.13;;;4.90;;
8060;SDS011;4073;42.626;25.386;2023-01-19T12:28:16;11.57;;;4.53;;
8060;SDS011;4073;42.626;25.386;2023-01-19T12:30:44;20.13;;;5.57;;
8060;SDS011;4073;42.626;25.386;2023-01-19T12:36:00;18.63;;;5.50;;
8060;SDS011;4073;42.626;25.386;2023-01-19T12:38:49;15.43;;;4.47;;
8060;SDS011;4073;42.626;25.386;2023-01-19T12:46:44;19.00;;;5.63;;
8060;SDS011;4073;42.626;25.386;2023-01-19T12:51:53;14.33;;;4.27;;
8060;SDS011;4073;42.626;25.386;2023-01-19T12:54:35;13.63;;;4.50;;
8060;SDS011;4073;42.626;25.386;2023-01-19T12:57:07;13.60;;;4.13;;
8060;SDS011;4073;42.626;25.386;2023-01-19T12:59:45;20.67;;;5.33;;
8060;SDS011;4073;42.626;25.386;2023-01-19T13:16:48;14.30;;;4.07;;
8060;SDS011;4073;42.626;25.386;2023-01-19T13:19:26;11.07;;;3.93;;
8060;SDS011;4073;42.626;25.386;2023-01-19T13:22:00;14.80;;;3.80;;
8060;SDS011;4073;42.626;25.386;2023-01-19T13:25:05;12.10;;;3.40;;
8060;SDS011;4073;42.626;25.386;2023-01-19T13:27:45;14.57;;;4.03;;
8060;SDS011;4073;42.626;25.386;2023-01-19T13:30:14;8.20;;;3.47;;
8060;SDS011;4073;42.626;25.386;2023-01-19T13:32:41;10.73;;;3.90;;
8060;SDS011;4073;42.626;25.386;2023-01-19T13:35:12;13.30;;;3.83;;
8060;SDS011;4073;42.626;25.386;2023-01-19T13:37:42;14.00;;;3.50;;
8060;SDS011;4073;42.626;25.386;2023-01-19T13:40:16;11.33;;;3.83;;
8060;SDS011;4073;42.626;25.386;2023-01-19T13:42:45;11.70;;;3.40;;
8060;SDS011;4073;42.626;25.386;2023-01-19T13:45:31;11.47;;;3.23;;
8060;SDS011;4073;42.626;25.386;2023-01-19T13:48:01;7.87;;;4.00;;
8060;SDS011;4073;42.626;25.386;2023-01-19T13:50:31;15.03;;;3.60;;
8060;SDS011;4073;42.626;25.386;2023-01-19T13:52:58;11.30;;;3.40;;
8060;SDS011;4073;42.626;25.386;2023-01-19T13:55:26;8.33;;;3.20;;
8060;SDS011;4073;42.626;25.386;2023-01-19T13:57:53;11.80;;;3.77;;
8060;SDS011;4073;42.626;25.386;2023-01-19T14:00:20;10.33;;;3.17;;
8060;SDS011;4073;42.626;25.386;2023-01-19T14:10:24;13.83;;;4.03;;
8060;SDS011;4073;42.626;25.386;2023-01-19T14:13:00;11.67;;;4.17;;
8060;SDS011;4073;42.626;25.386;2023-01-19T14:15:27;10.77;;;3.70;;
8060;SDS011;4073;42.626;25.386;2023-01-19T14:20:38;11.07;;;3.60;;
8060;SDS011;4073;42.626;25.386;2023-01-19T14:23:05;8.87;;;5.43;;
8060;SDS011;4073;42.626;25.386;2023-01-19T14:25:35;10.17;;;3.07;;
8060;SDS011;4073;42.626;25.386;2023-01-19T14:30:57;15.57;;;5.70;;
8060;SDS011;4073;42.626;25.386;2023-01-19T14:33:40;18.13;;;5.40;;
8060;SDS011;4073;42.626;25.386;2023-01-19T14:36:10;11.23;;;5.97;;
8060;SDS011;4073;42.626;25.386;2023-01-19T14:38:48;9.30;;;3.50;;
8060;SDS011;4073;42.626;25.386;2023-01-19T14:43:59;8.63;;;3.07;;
8060;SDS011;4073;42.626;25.386;2023-01-19T14:46:27;12.80;;;3.87;;
8060;SDS011;4073;42.626;25.386;2023-01-19T14:48:55;16.10;;;7.17;;
8060;SDS011;4073;42.626;25.386;2023-01-19T14:51:26;13.03;;;6.23;;
8060;SDS011;4073;42.626;25.386;2023-01-19T14:53:56;8.87;;;3.90;;
8060;SDS011;4073;42.626;25.386;2023-01-19T14:56:28;10.27;;;3.90;;
8060;SDS011;4073;42.626;25.386;2023-01-19T14:58:58;11.23;;;3.67;;
8060;SDS011;4073;42.626;25.386;2023-01-19T15:01:26;9.97;;;3.43;;
8060;SDS011;4073;42.626;25.386;2023-01-19T15:03:53;7.37;;;3.43;;
8060;SDS011;4073;42.626;25.386;2023-01-19T15:06:21;11.60;;;4.47;;
8060;SDS011;4073;42.626;25.386;2023-01-19T15:08:48;13.77;;;4.57;;
8060;SDS011;4073;42.626;25.386;2023-01-19T15:11:17;10.47;;;3.80;;
8060;SDS011;4073;42.626;25.386;2023-01-19T15:13:59;7.73;;;3.83;;
8060;SDS011;4073;42.626;25.386;2023-01-19T15:16:26;13.57;;;3.83;;
8060;SDS011;4073;42.626;25.386;2023-01-19T15:18:53;9.33;;;3.63;;
8060;SDS011;4073;42.626;25.386;2023-01-19T15:21:19;8.73;;;4.00;;
8060;SDS011;4073;42.626;25.386;2023-01-19T15:23:50;9.03;;;3.37;;
8060;SDS011;4073;42.626;25.386;2023-01-19T15:26:17;13.00;;;5.63;;
8060;SDS011;4073;42.626;25.386;2023-01-19T15:28:44;11.83;;;4.17;;
8060;SDS011;4073;42.626;25.386;2023-01-19T15:31:16;7.33;;;3.93;;
8060;SDS011;4073;42.626;25.386;2023-01-19T15:33:43;12.03;;;4.30;;
8060;SDS011;4073;42.626;25.386;2023-01-19T15:36:13;6.73;;;3.67;;
8060;SDS011;4073;42.626;25.386;2023-01-19T15:38:40;10.73;;;4.43;;
8060;SDS011;4073;42.626;25.386;2023-01-19T15:41:13;7.73;;;3.40;;
8060;SDS011;4073;42.626;25.386;2023-01-19T15:43:49;6.93;;;3.93;;
8060;SDS011;4073;42.626;25.386;2023-01-19T15:46:14;8.80;;;3.83;;
8060;SDS011;4073;42.626;25.386;2023-01-19T15:48:43;12.40;;;5.80;;
8060;SDS011;4073;42.626;25.386;2023-01-19T15:51:15;12.07;;;4.03;;
8060;SDS011;4073;42.626;25.386;2023-01-19T15:53:42;10.67;;;4.70;;
8060;SDS011;4073;42.626;25.386;2023-01-19T15:56:25;9.47;;;4.43;;
8060;SDS011;4073;42.626;25.386;2023-01-19T15:58:53;12.33;;;3.90;;
8060;SDS011;4073;42.626;25.386;2023-01-19T16:01:20;10.57;;;4.53;;
8060;SDS011;4073;42.626;25.386;2023-01-19T16:03:56;13.37;;;5.00;;
8060;SDS011;4073;42.626;25.386;2023-01-19T16:06:23;8.60;;;4.47;;
8060;SDS011;4073;42.626;25.386;2023-01-19T16:08:49;12.80;;;4.07;;
8060;SDS011;4073;42.626;25.386;2023-01-19T16:11:14;8.87;;;4.77;;
8060;SDS011;4073;42.626;25.386;2023-01-19T16:13:42;12.73;;;4.80;;
8060;SDS011;4073;42.626;25.386;2023-01-19T16:16:17;8.33;;;4.37;;
8060;SDS011;4073;42.626;25.386;2023-01-19T16:18:44;14.10;;;4.70;;
8060;SDS011;4073;42.626;25.386;2023-01-19T16:21:10;9.03;;;4.23;;
8060;SDS011;4073;42.626;25.386;2023-01-19T16:23:36;11.33;;;4.23;;
8060;SDS011;4073;42.626;25.386;2023-01-19T16:26:03;15.63;;;3.93;;
8060;SDS011;4073;42.626;25.386;2023-01-19T16:28:32;14.73;;;3.73;;
8060;SDS011;4073;42.626;25.386;2023-01-19T16:30:59;11.47;;;5.57;;
8060;SDS011;4073;42.626;25.386;2023-01-19T16:33:24;9.67;;;5.30;;
8060;SDS011;4073;42.626;25.386;2023-01-19T16:35:49;9.67;;;3.63;;
8060;SDS011;4073;42.626;25.386;2023-01-19T16:38:15;13.87;;;4.70;;
8060;SDS011;4073;42.626;25.386;2023-01-19T16:40:44;20.83;;;6.70;;
8060;SDS011;4073;42.626;25.386;2023-01-19T16:43:11;13.50;;;4.40;;
8060;SDS011;4073;42.626;25.386;2023-01-19T16:45:57;10.63;;;3.53;;